Time;durP1;ratioP1;P1;durP2;ratioP2;P2;SDS_P1;SDS_P2;PMS_P1;PMS_P2;Temp;Humidity;BMP_temperature;BMP_pressure;BME280_temperature;BME280_humidity;BME280_pressure;Samples;Min_cycle;Max_cycle;Signal;HPM_P1;HPM_P2
2022/09/19 00:01:41;;;;;;;3.10;0.80;;;21.40;67.40;;;;;;5074889;28;20107;-75
2022/09/19 00:04:14;;;;;;;1.40;0.60;;;21.40;67.40;;;;;;5074902;28;20052;-75
2022/09/19 00:06:40;;;;;;;2.30;0.65;;;21.40;67.50;;;;;;5088891;28;20027;-75
2022/09/19 00:09:09;;;;;;;0.68;0.50;;;21.40;67.40;;;;;;5115544;28;20076;-75
2022/09/19 00:11:36;;;;;;;1.52;0.60;;;21.40;67.50;;;;;;5116784;28;20027;-75
2022/09/19 00:14:02;;;;;;;1.88;0.98;;;21.40;67.50;;;;;;5115395;28;20102;-75
2022/09/19 00:16:31;;;;;;;0.88;0.55;;;21.40;67.50;;;;;;5115317;28;20104;-75
2022/09/19 00:18:59;;;;;;;1.33;0.73;;;21.30;67.60;;;;;;5115011;28;20019;-75
2022/09/19 00:21:26;;;;;;;1.70;0.73;;;21.30;67.60;;;;;;5115320;28;20014;-75
2022/09/19 00:26:36;;;;;;;0.80;0.50;;;21.30;67.70;;;;;;5116491;28;20620;-75
2022/09/19 00:29:02;;;;;;;1.40;0.90;;;21.30;67.60;;;;;;5115089;28;20028;-75
2022/09/19 00:31:28;;;;;;;1.08;0.70;;;21.30;67.60;;;;;;5114995;28;20069;-75
2022/09/19 00:33:54;;;;;;;1.00;0.60;;;21.30;67.80;;;;;;5114797;28;20027;-75
2022/09/19 00:36:19;;;;;;;0.57;0.50;;;21.30;67.70;;;;;;5115069;28;20018;-75
2022/09/19 00:38:45;;;;;;;0.80;0.50;;;21.30;67.70;;;;;;5114960;28;20026;-74
2022/09/19 00:41:21;;;;;;;1.63;0.80;;;21.30;67.80;;;;;;5116046;28;20395;-75
2022/09/19 00:43:47;;;;;;;0.68;0.50;;;21.30;67.90;;;;;;5057450;28;20032;-75
2022/09/19 00:46:13;;;;;;;2.00;0.60;;;21.30;67.90;;;;;;5075559;28;20070;-75
2022/09/19 00:48:41;;;;;;;2.72;0.70;;;21.30;67.90;;;;;;5074880;28;20397;-75
2022/09/19 00:51:11;;;;;;;1.48;0.80;;;21.30;68.00;;;;;;5073983;28;20472;-75
2022/09/19 00:53:36;;;;;;;0.70;0.55;;;21.30;68.10;;;;;;5073992;28;20033;-75
2022/09/19 00:56:02;;;;;;;1.33;0.70;;;21.30;68.00;;;;;;5057180;28;20017;-74
2022/09/19 00:58:29;;;;;;;0.82;0.60;;;21.20;68.00;;;;;;5057317;28;20029;-74
2022/09/19 01:00:57;;;;;;;1.73;0.82;;;21.20;68.10;;;;;;5056449;28;20093;-74
2022/09/19 01:03:25;;;;;;;1.58;0.70;;;21.20;68.10;;;;;;5074935;28;20036;-75
2022/09/19 01:06:06;;;;;;;1.90;0.57;;;21.20;68.10;;;;;;5073984;28;20021;-75
2022/09/19 01:08:50;;;;;;;3.30;0.98;;;21.20;68.20;;;;;;5115274;28;20024;-75
2022/09/19 01:11:19;;;;;;;0.80;0.52;;;21.20;68.10;;;;;;5115590;28;20086;-75
2022/09/19 01:14:09;;;;;;;1.27;0.70;;;21.20;68.20;;;;;;5115281;28;20023;-74
2022/09/19 01:16:42;;;;;;;0.93;0.75;;;21.20;68.20;;;;;;5114117;28;20022;-74
2022/09/19 01:19:56;;;;;;;1.08;0.65;;;21.10;68.20;;;;;;5113916;28;20030;-74
2022/09/19 01:22:52;;;;;;;3.13;0.77;;;21.20;68.20;;;;;;5108200;28;20034;-74
2022/09/19 01:25:35;;;;;;;0.57;0.40;;;21.20;68.20;;;;;;5115100;28;20142;-74
2022/09/19 01:28:20;;;;;;;0.82;0.50;;;21.20;68.30;;;;;;5114052;28;20391;-74
2022/09/19 01:31:17;;;;;;;1.20;0.77;;;21.10;68.20;;;;;;5113898;28;20070;-74
2022/09/19 01:34:02;;;;;;;2.08;0.68;;;21.10;68.20;;;;;;5112153;28;20031;-75
2022/09/19 01:36:35;;;;;;;0.93;0.52;;;21.10;68.30;;;;;;5113808;28;20077;-75
2022/09/19 01:39:02;;;;;;;1.05;0.70;;;21.10;68.30;;;;;;5097729;28;20022;-75
2022/09/19 01:41:28;;;;;;;1.38;0.60;;;21.10;68.30;;;;;;5112001;28;20015;-75
2022/09/19 01:43:54;;;;;;;1.38;0.70;;;21.10;68.30;;;;;;5072826;28;20583;-75
2022/09/19 01:46:32;;;;;;;0.65;0.50;;;21.10;68.40;;;;;;5072975;28;20029;-75
2022/09/19 01:49:06;;;;;;;0.70;0.60;;;21.10;68.40;;;;;;5073901;28;20102;-75
2022/09/19 01:51:37;;;;;;;1.02;0.65;;;21.10;68.30;;;;;;5073090;28;20112;-75
2022/09/19 01:54:29;;;;;;;0.98;0.60;;;21.10;68.40;;;;;;5072719;28;20089;-75
2022/09/19 01:57:24;;;;;;;1.63;0.60;;;21.10;68.40;;;;;;5034994;28;20033;-75
2022/09/19 01:59:57;;;;;;;1.25;0.65;;;21.10;68.50;;;;;;5048259;28;20025;-75
2022/09/19 02:02:28;;;;;;;0.60;0.60;;;21.00;68.50;;;;;;5035992;28;20078;-74
2022/09/19 02:05:13;;;;;;;3.42;0.60;;;21.00;68.50;;;;;;5051736;28;20112;-74
2022/09/19 02:07:50;;;;;;;1.02;0.40;;;21.00;68.40;;;;;;5070207;28;20040;-74
2022/09/19 02:10:19;;;;;;;0.85;0.50;;;21.00;68.50;;;;;;5091678;28;20031;-74
2022/09/19 02:12:45;;;;;;;2.33;0.85;;;21.00;68.50;;;;;;5058512;28;20032;-75
2022/09/19 02:15:11;;;;;;;2.20;0.70;;;21.00;68.50;;;;;;5057925;28;20175;-74
2022/09/19 02:17:58;;;;;;;1.65;0.60;;;21.00;68.60;;;;;;5058272;28;20024;-74
2022/09/19 02:20:28;;;;;;;0.70;0.55;;;21.00;68.60;;;;;;5077547;28;20113;-75
2022/09/19 02:23:04;;;;;;;2.90;0.50;;;21.00;68.60;;;;;;5074511;28;20054;-75
2022/09/19 02:25:32;;;;;;;1.60;0.70;;;21.00;68.60;;;;;;5058322;28;20027;-74
2022/09/19 02:28:10;;;;;;;0.70;0.47;;;21.00;68.70;;;;;;5074511;28;20040;-74
2022/09/19 02:30:36;;;;;;;0.75;0.50;;;21.00;68.70;;;;;;5059033;28;20032;-74
2022/09/19 02:33:07;;;;;;;0.65;0.50;;;21.00;68.70;;;;;;5077870;28;20047;-75
2022/09/19 02:36:09;;;;;;;0.93;0.55;;;21.00;68.70;;;;;;5096665;28;20023;-75
2022/09/19 02:38:51;;;;;;;0.47;0.40;;;21.00;68.70;;;;;;5112519;28;20027;-75
2022/09/19 02:41:36;;;;;;;2.85;0.60;;;20.90;68.70;;;;;;5097855;28;20024;-74
2022/09/19 02:44:19;;;;;;;0.95;0.60;;;20.90;68.70;;;;;;5071735;28;20056;-75
2022/09/19 02:47:02;;;;;;;0.98;0.50;;;20.90;68.70;;;;;;5073108;28;20070;-74
2022/09/19 02:49:47;;;;;;;1.20;0.70;;;20.90;68.70;;;;;;5071673;28;20079;-74
2022/09/19 02:52:17;;;;;;;1.63;0.98;;;20.90;68.70;;;;;;5071849;28;20112;-74
2022/09/19 02:54:46;;;;;;;1.58;0.70;;;20.90;68.70;;;;;;5071814;28;20048;-74
2022/09/19 02:57:13;;;;;;;0.80;0.50;;;20.90;68.70;;;;;;5071841;28;21140;-75
2022/09/19 02:59:40;;;;;;;1.10;0.55;;;20.90;68.70;;;;;;5071346;28;20022;-74
2022/09/19 03:02:18;;;;;;;0.85;0.50;;;20.90;68.70;;;;;;5071617;28;20017;-74
2022/09/19 03:04:47;;;;;;;1.10;0.57;;;20.90;68.70;;;;;;5072131;28;20404;-73
2022/09/19 03:07:17;;;;;;;1.27;0.60;;;20.90;68.80;;;;;;5086430;28;20510;-74
2022/09/19 03:09:52;;;;;;;0.68;0.50;;;20.90;68.80;;;;;;5095560;28;20049;-74
2022/09/19 03:12:28;;;;;;;1.88;0.80;;;20.90;68.90;;;;;;5095383;28;20016;-75
2022/09/19 03:14:58;;;;;;;0.80;0.70;;;20.90;68.80;;;;;;5095463;28;20059;-75
2022/09/19 03:17:30;;;;;;;1.58;0.90;;;20.80;68.80;;;;;;5113158;28;20039;-76
2022/09/19 03:19:56;;;;;;;1.15;0.60;;;20.80;68.90;;;;;;5094967;28;20016;-75
2022/09/19 03:22:22;;;;;;;1.27;0.63;;;20.90;69.00;;;;;;5111626;28;20084;-75
2022/09/19 03:24:48;;;;;;;1.35;0.50;;;20.80;69.00;;;;;;5112911;28;20414;-76
2022/09/19 03:27:13;;;;;;;1.02;0.50;;;20.90;68.90;;;;;;5111306;28;20434;-76
2022/09/19 03:29:39;;;;;;;0.43;0.40;;;20.80;68.90;;;;;;5112909;28;20036;-74
2022/09/19 03:32:05;;;;;;;0.68;0.40;;;20.80;68.90;;;;;;5094692;28;20023;-75
2022/09/19 03:34:32;;;;;;;1.05;0.60;;;20.80;69.00;;;;;;5112679;28;20051;-75
2022/09/19 03:36:59;;;;;;;0.88;0.57;;;20.80;69.00;;;;;;5112749;28;20050;-75
2022/09/19 03:39:24;;;;;;;1.90;0.60;;;20.80;69.00;;;;;;5112921;28;20037;-75
2022/09/19 03:41:50;;;;;;;1.73;0.60;;;20.80;69.00;;;;;;5104528;28;20016;-75
2022/09/19 03:44:19;;;;;;;4.60;0.57;;;20.80;69.00;;;;;;5072008;28;20027;-75
2022/09/19 03:46:46;;;;;;;1.70;0.60;;;20.80;69.00;;;;;;5072549;28;20492;-75
2022/09/19 03:49:12;;;;;;;1.63;0.80;;;20.80;69.00;;;;;;5071901;28;20048;-75
2022/09/19 03:51:37;;;;;;;0.63;0.40;;;20.80;69.00;;;;;;5072308;28;20502;-75
2022/09/19 03:54:03;;;;;;;2.15;0.52;;;20.80;69.00;;;;;;5070931;28;20032;-74
2022/09/19 03:56:29;;;;;;;2.17;0.47;;;20.80;69.00;;;;;;5071933;28;20023;-74
2022/09/19 03:58:54;;;;;;;0.60;0.50;;;20.80;69.10;;;;;;5071002;28;20020;-74
2022/09/19 04:01:20;;;;;;;1.25;0.50;;;20.80;69.10;;;;;;5071905;28;20108;-74
2022/09/19 04:03:46;;;;;;;0.68;0.40;;;20.70;69.00;;;;;;5071018;28;20032;-74
2022/09/19 04:06:11;;;;;;;1.48;0.50;;;20.80;69.10;;;;;;5078133;28;20489;-75
2022/09/19 04:08:37;;;;;;;0.60;0.60;;;20.80;69.10;;;;;;5111261;28;20478;-75
2022/09/19 04:11:03;;;;;;;0.68;0.50;;;20.70;69.00;;;;;;5112214;28;20032;-75
2022/09/19 04:13:31;;;;;;;0.40;0.40;;;20.70;69.00;;;;;;5094596;28;20024;-75
2022/09/19 04:15:59;;;;;;;0.60;0.60;;;20.70;69.00;;;;;;5112417;28;20015;-75
2022/09/19 04:18:24;;;;;;;0.43;0.40;;;20.70;69.10;;;;;;5111447;28;20024;-75
2022/09/19 04:20:51;;;;;;;0.93;0.60;;;20.70;69.10;;;;;;5111272;28;20514;-75
2022/09/19 04:23:16;;;;;;;2.70;0.70;;;20.70;69.10;;;;;;5112357;28;20012;-75
2022/09/19 04:25:44;;;;;;;0.90;0.50;;;20.70;69.10;;;;;;5111267;28;20022;-75
2022/09/19 04:28:11;;;;;;;1.55;0.57;;;20.70;69.20;;;;;;5094387;28;20031;-75
2022/09/19 04:30:38;;;;;;;0.45;0.43;;;20.70;69.10;;;;;;5111168;28;20514;-75
2022/09/19 04:33:04;;;;;;;0.30;0.30;;;20.70;69.20;;;;;;5094311;28;20016;-75
2022/09/19 04:35:35;;;;;;;0.70;0.45;;;20.70;69.20;;;;;;5095818;28;20028;-75
2022/09/19 04:38:08;;;;;;;0.57;0.50;;;20.70;69.20;;;;;;5115137;28;20028;-75
2022/09/19 04:40:40;;;;;;;0.60;0.50;;;20.70;69.10;;;;;;5097766;28;20034;-75
2022/09/19 04:43:08;;;;;;;;;;;20.70;69.20;;;;;;5086034;28;20025;-75
2022/09/19 04:45:33;;;;;;;0.40;0.40;;;20.70;69.10;;;;;;5075479;28;19915;-75
2022/09/19 04:47:59;;;;;;;1.50;0.50;;;20.70;69.20;;;;;;5075355;28;20033;-75
2022/09/19 04:50:25;;;;;;;0.40;0.40;;;20.70;69.20;;;;;;5075010;28;20102;-75
2022/09/19 04:52:52;;;;;;;0.73;0.50;;;20.70;69.20;;;;;;5075383;28;20025;-75
2022/09/19 04:55:17;;;;;;;1.30;0.47;;;20.60;69.10;;;;;;5074886;28;20021;-74
2022/09/19 04:57:44;;;;;;;1.20;0.52;;;20.60;69.10;;;;;;5074053;28;20029;-74
2022/09/19 05:00:10;;;;;;;0.68;0.50;;;20.60;69.10;;;;;;5073879;28;20021;-74
2022/09/19 05:02:36;;;;;;;0.60;0.60;;;20.60;69.20;;;;;;5073659;28;20564;-73
2022/09/19 05:05:04;;;;;;;0.88;0.50;;;20.60;69.20;;;;;;5075077;28;20075;-73
2022/09/19 05:07:33;;;;;;;0.50;0.50;;;20.60;69.20;;;;;;5101769;28;20019;-74
2022/09/19 05:10:01;;;;;;;0.80;0.63;;;20.60;69.20;;;;;;5115349;28;20027;-74
2022/09/19 05:12:28;;;;;;;0.82;0.50;;;20.60;69.20;;;;;;5115440;28;20028;-74
2022/09/19 05:14:54;;;;;;;0.50;0.50;;;20.60;69.30;;;;;;5097574;28;20042;-74
2022/09/19 05:17:20;;;;;;;1.23;0.60;;;20.60;69.30;;;;;;5114170;28;20022;-74
2022/09/19 05:19:46;;;;;;;1.88;0.70;;;20.60;69.30;;;;;;5114210;28;20024;-74
2022/09/19 05:22:11;;;;;;;1.88;0.80;;;20.60;69.30;;;;;;5109175;28;20052;-75
2022/09/19 05:24:37;;;;;;;0.80;0.55;;;20.60;69.30;;;;;;5094764;28;20052;-75
2022/09/19 05:27:03;;;;;;;1.23;0.63;;;20.60;69.30;;;;;;5093938;28;20563;-75
2022/09/19 05:29:29;;;;;;;1.27;0.60;;;20.60;69.30;;;;;;5095039;28;20021;-75
2022/09/19 05:32:02;;;;;;;0.55;0.52;;;20.60;69.30;;;;;;5094013;28;20031;-75
2022/09/19 05:34:27;;;;;;;0.95;0.40;;;20.60;69.30;;;;;;5094180;28;20027;-73
2022/09/19 05:36:53;;;;;;;1.23;0.55;;;20.60;69.40;;;;;;5094720;28;20099;-73
2022/09/19 05:39:18;;;;;;;1.33;0.70;;;20.50;66.80;;;;;;5093778;28;20028;-73
2022/09/19 05:41:44;;;;;;;2.17;0.55;;;20.50;66.50;;;;;;5089684;28;20493;-72
2022/09/19 05:44:10;;;;;;;2.75;0.90;;;20.40;66.60;;;;;;5074008;28;20485;-73
2022/09/19 05:46:35;;;;;;;3.75;0.77;;;20.40;66.50;;;;;;5073655;28;20028;-73
2022/09/19 05:49:01;;;;;;;1.52;0.60;;;20.40;66.40;;;;;;5073775;28;20044;-73
2022/09/19 05:51:26;;;;;;;2.30;0.98;;;20.30;66.30;;;;;;5082868;28;20081;-73
2022/09/19 05:53:52;;;;;;;2.38;0.63;;;20.40;66.30;;;;;;5093789;28;20048;-73
2022/09/19 05:56:18;;;;;;;0.60;0.60;;;20.40;66.10;;;;;;5093978;28;20502;-72
2022/09/19 05:58:44;;;;;;;0.60;0.50;;;20.30;66.00;;;;;;5093215;28;20024;-73
2022/09/19 06:01:11;;;;;;;2.03;0.60;;;20.30;65.90;;;;;;5092766;28;20020;-73
2022/09/19 06:03:38;;;;;;;3.08;0.70;;;20.30;65.80;;;;;;5075878;28;20379;-72
2022/09/19 06:06:14;;;;;;;0.70;0.50;;;20.30;65.70;;;;;;5092691;28;20020;-73
2022/09/19 06:08:41;;;;;;;0.73;0.50;;;20.20;65.70;;;;;;5075871;28;20369;-73
2022/09/19 06:11:07;;;;;;;0.95;0.55;;;20.20;65.70;;;;;;5092691;28;20103;-73
2022/09/19 06:16:20;;;;;;;1.48;0.60;;;20.20;65.60;;;;;;5093580;28;20028;-76
2022/09/19 06:18:46;;;;;;;1.58;0.60;;;20.20;65.50;;;;;;5093671;28;20022;-74
2022/09/19 06:21:12;;;;;;;2.35;0.80;;;20.20;65.50;;;;;;5075233;28;20099;-75
2022/09/19 06:23:39;;;;;;;2.30;0.80;;;20.20;65.50;;;;;;5092160;28;20020;-75
2022/09/19 06:26:04;;;;;;;1.77;0.80;;;20.20;65.40;;;;;;5093731;28;20027;-75
2022/09/19 06:28:30;;;;;;;0.60;0.60;;;20.10;66.50;;;;;;5092443;28;20024;-75
2022/09/19 06:31:04;;;;;;;1.55;0.73;;;20.10;65.30;;;;;;5093594;28;20091;-75
2022/09/19 06:33:33;;;;;;;1.75;0.60;;;20.10;65.30;;;;;;5093389;28;20446;-74
2022/09/19 06:35:59;;;;;;;1.35;0.60;;;20.10;65.30;;;;;;5075263;28;20044;-75
2022/09/19 06:38:26;;;;;;;1.17;0.68;;;20.10;65.40;;;;;;5092139;28;20074;-75
2022/09/19 06:40:51;;;;;;;0.40;0.40;;;20.10;65.40;;;;;;5092152;28;20062;-75
2022/09/19 06:43:17;;;;;;;1.80;0.80;;;20.10;65.40;;;;;;5077046;28;20036;-75
2022/09/19 06:45:43;;;;;;;1.70;0.60;;;20.00;65.30;;;;;;5071975;28;20024;-75
2022/09/19 06:48:09;;;;;;;2.75;0.70;;;20.00;65.20;;;;;;5071804;28;20028;-75
2022/09/19 06:50:35;;;;;;;1.48;0.60;;;20.00;65.20;;;;;;5071231;28;20451;-75
2022/09/19 06:53:00;;;;;;;1.92;0.93;;;20.00;65.20;;;;;;5071804;28;20070;-75
2022/09/19 06:55:27;;;;;;;2.08;0.63;;;20.00;65.30;;;;;;5071549;28;20051;-74
2022/09/19 06:57:58;;;;;;;4.80;1.08;;;20.00;65.20;;;;;;5070741;28;20023;-74
2022/09/19 07:00:24;;;;;;;8.60;1.67;;;20.00;65.30;;;;;;5071543;28;20040;-74
2022/09/19 07:03:20;;;;;;;3.80;1.17;;;20.00;65.50;;;;;;5071628;28;20099;-74
2022/09/19 07:05:47;;;;;;;4.38;1.15;;;20.00;65.50;;;;;;5066637;28;20032;-74
2022/09/19 07:08:13;;;;;;;4.93;1.30;;;20.00;65.50;;;;;;5112622;28;20098;-74
2022/09/19 07:10:40;;;;;;;5.78;1.58;;;20.00;65.50;;;;;;5113075;28;20098;-74
2022/09/19 07:13:06;;;;;;;6.97;1.88;;;20.00;65.60;;;;;;5113288;28;20487;-74
2022/09/19 07:15:35;;;;;;;6.82;1.60;;;19.90;65.50;;;;;;5113021;28;20506;-74
2022/09/19 07:18:01;;;;;;;3.58;1.98;;;20.00;65.70;;;;;;5111834;28;20103;-74
2022/09/19 07:20:27;;;;;;;5.65;1.63;;;19.90;65.70;;;;;;5079632;28;20059;-74
2022/09/19 07:23:03;;;;;;;7.03;2.15;;;19.90;65.90;;;;;;5110290;28;20140;-73
2022/09/19 07:25:29;;;;;;;4.43;1.50;;;19.90;65.90;;;;;;5092387;28;20495;-74
2022/09/19 07:28:02;;;;;;;6.43;1.77;;;19.90;66.00;;;;;;5083708;28;20115;-73
2022/09/19 07:30:28;;;;;;;9.18;2.70;;;19.90;65.90;;;;;;5111658;28;20035;-74
2022/09/19 07:32:57;;;;;;;5.25;1.67;;;19.90;66.00;;;;;;5094842;28;20023;-74
2022/09/19 07:35:25;;;;;;;9.70;2.53;;;19.90;66.00;;;;;;5111011;28;20028;-73
2022/09/19 07:37:51;;;;;;;8.40;1.90;;;19.90;66.30;;;;;;5091296;28;20027;-74
2022/09/19 07:40:16;;;;;;;6.82;1.63;;;19.90;66.20;;;;;;5091188;28;20025;-74
2022/09/19 07:42:42;;;;;;;7.18;2.03;;;19.80;66.20;;;;;;5079803;28;20036;-74
2022/09/19 07:45:08;;;;;;;6.18;2.03;;;19.80;66.20;;;;;;5072298;28;20028;-74
2022/09/19 07:47:34;;;;;;;9.70;2.13;;;19.80;66.30;;;;;;5071920;28;20024;-74
2022/09/19 07:49:59;;;;;;;6.88;1.60;;;19.90;66.30;;;;;;5071802;28;20040;-74
2022/09/19 07:52:26;;;;;;;11.80;2.55;;;19.90;66.40;;;;;;5070841;28;20450;-73
2022/09/19 07:54:51;;;;;;;9.18;2.40;;;19.80;66.30;;;;;;5092262;28;20031;-74
2022/09/19 07:57:17;;;;;;;4.75;1.90;;;19.80;66.20;;;;;;5092412;28;20028;-74
2022/09/19 07:59:44;;;;;;;9.07;2.00;;;19.80;66.30;;;;;;5090986;28;20410;-75
2022/09/19 08:02:10;;;;;;;6.13;1.90;;;19.80;66.30;;;;;;5091197;28;20024;-73
2022/09/19 08:04:36;;;;;;;3.95;1.75;;;19.80;66.30;;;;;;5090579;28;20034;-74
2022/09/19 08:07:04;;;;;;;5.40;2.20;;;19.80;66.30;;;;;;5091036;28;20031;-74
2022/09/19 08:09:30;;;;;;;5.22;1.80;;;19.80;66.30;;;;;;5093695;28;20024;-74
2022/09/19 08:11:56;;;;;;;5.53;1.98;;;19.80;66.40;;;;;;5096279;28;20038;-74
2022/09/19 08:14:22;;;;;;;9.13;2.10;;;19.70;66.20;;;;;;5095984;28;20028;-74
2022/09/19 08:16:50;;;;;;;4.20;1.60;;;19.80;66.40;;;;;;5094692;28;20036;-74
2022/09/19 08:19:16;;;;;;;8.68;2.35;;;19.70;66.30;;;;;;5095893;28;20506;-74
2022/09/19 08:21:41;;;;;;;5.72;2.03;;;19.80;66.40;;;;;;5077593;28;20024;-74
2022/09/19 08:24:07;;;;;;;3.55;1.65;;;19.80;66.40;;;;;;5075916;28;20020;-76
2022/09/19 08:26:33;;;;;;;6.95;2.08;;;19.70;66.40;;;;;;5075357;28;20028;-74
2022/09/19 08:28:59;;;;;;;4.47;1.90;;;19.70;66.50;;;;;;5114900;28;20041;-74
2022/09/19 08:31:25;;;;;;;6.55;2.20;;;19.70;66.50;;;;;;5114938;28;20080;-74
2022/09/19 08:33:50;;;;;;;6.68;1.73;;;19.70;66.50;;;;;;5115029;28;20039;-74
2022/09/19 08:36:16;;;;;;;3.90;1.73;;;19.70;66.50;;;;;;5115005;28;20027;-74
2022/09/19 08:38:43;;;;;;;4.18;1.90;;;19.70;66.50;;;;;;5115906;28;20020;-74
2022/09/19 08:41:28;;;;;;;6.35;2.15;;;19.70;66.50;;;;;;5115131;28;20019;-74
2022/09/19 08:44:24;;;;;;;5.32;1.80;;;19.70;66.60;;;;;;5116108;28;20051;-74
2022/09/19 08:47:13;;;;;;;6.40;2.38;;;19.70;66.60;;;;;;5114864;28;20028;-74
2022/09/19 08:49:50;;;;;;;7.00;2.25;;;19.70;66.60;;;;;;5114424;28;20051;-74
2022/09/19 08:52:18;;;;;;;9.77;2.63;;;19.70;66.60;;;;;;5098230;28;20027;-74
2022/09/19 08:54:45;;;;;;;6.10;2.40;;;19.70;66.60;;;;;;5115538;28;20023;-74
2022/09/19 08:57:19;;;;;;;5.15;1.63;;;19.70;66.70;;;;;;5114747;28;20048;-74
2022/09/19 08:59:45;;;;;;;5.38;1.92;;;19.70;66.70;;;;;;5098269;28;20019;-74
2022/09/19 09:02:24;;;;;;;5.30;1.80;;;19.70;66.70;;;;;;5115555;28;20026;-74
2022/09/19 09:04:50;;;;;;;4.10;1.63;;;19.70;66.70;;;;;;5114416;28;20023;-74
2022/09/19 09:07:31;;;;;;;5.85;1.70;;;19.70;66.80;;;;;;5114536;28;20368;-74
2022/09/19 09:10:21;;;;;;;7.10;2.00;;;19.70;66.70;;;;;;5114329;28;20111;-74
2022/09/19 09:12:58;;;;;;;4.88;1.98;;;19.70;66.80;;;;;;5114432;28;20023;-74
2022/09/19 09:15:33;;;;;;;6.22;1.58;;;19.70;66.80;;;;;;5115087;28;20141;-74
2022/09/19 09:18:07;;;;;;;6.82;2.00;;;19.70;66.80;;;;;;5115301;28;20096;-74
2022/09/19 09:20:47;;;;;;;4.45;1.95;;;19.70;66.80;;;;;;5095982;28;20438;-74
2022/09/19 09:23:20;;;;;;;4.28;1.70;;;19.70;66.80;;;;;;5073517;28;20055;-74
2022/09/19 09:25:47;;;;;;;5.10;1.98;;;19.70;66.80;;;;;;5073279;28;20491;-74
2022/09/19 09:28:25;;;;;;;4.75;1.58;;;19.70;66.90;;;;;;5102255;28;20019;-74
2022/09/19 09:30:51;;;;;;;8.43;1.85;;;19.70;66.90;;;;;;5113781;28;20020;-74
2022/09/19 09:33:31;;;;;;;4.53;1.65;;;19.70;66.90;;;;;;5097075;28;20444;-74
2022/09/19 09:36:10;;;;;;;3.80;1.48;;;19.60;66.80;;;;;;5113683;28;20024;-74
2022/09/19 09:38:48;;;;;;;4.97;1.50;;;19.60;66.80;;;;;;5097085;28;20475;-74
2022/09/19 09:41:50;;;;;;;4.80;1.60;;;19.60;66.80;;;;;;5098335;28;20028;-74
2022/09/19 09:44:16;;;;;;;2.72;1.77;;;19.60;66.80;;;;;;5098659;28;20544;-74
2022/09/19 09:46:43;;;;;;;4.80;1.77;;;19.60;66.80;;;;;;5114690;28;20019;-74
2022/09/19 09:49:14;;;;;;;3.40;1.33;;;19.60;66.90;;;;;;5114684;28;20087;-74
2022/09/19 09:51:40;;;;;;;4.70;1.58;;;19.60;66.90;;;;;;5114560;28;20036;-74
2022/09/19 09:57:29;;;;;;;3.05;1.23;;;19.60;66.80;;;;;;5113705;28;20050;-74
2022/09/19 10:06:13;;;;;;;4.55;1.52;;;19.60;66.90;;;;;;5114267;28;20157;-74
2022/09/19 10:08:43;;;;;;;2.75;1.50;;;19.60;67.00;;;;;;5113601;28;20065;-74
2022/09/19 10:11:16;;;;;;;2.72;1.55;;;19.60;67.00;;;;;;5113082;28;20027;-74
2022/09/19 10:13:57;;;;;;;4.85;1.50;;;19.60;67.00;;;;;;5096014;28;20024;-74
2022/09/19 10:16:23;;;;;;;4.25;1.60;;;19.60;67.00;;;;;;5098248;28;20016;-74
2022/09/19 10:18:55;;;;;;;5.35;1.50;;;19.60;67.10;;;;;;5112904;28;20027;-74
2022/09/19 10:21:20;;;;;;;4.05;1.38;;;19.60;67.00;;;;;;5066237;28;20169;-74
2022/09/19 10:23:46;;;;;;;3.53;1.40;;;19.60;67.10;;;;;;5073196;28;20536;-74
2022/09/19 10:26:19;;;;;;;4.45;1.48;;;19.60;67.10;;;;;;5073580;28;20043;-74
2022/09/19 10:28:52;;;;;;;3.28;1.13;;;19.60;67.20;;;;;;5108260;28;20430;-74
2022/09/19 10:31:34;;;;;;;3.33;1.25;;;19.60;67.20;;;;;;5113950;28;20020;-74
2022/09/19 10:34:04;;;;;;;4.63;1.67;;;19.60;67.20;;;;;;5094936;28;20038;-74
2022/09/19 10:36:33;;;;;;;4.25;1.30;;;19.60;67.20;;;;;;5113688;28;20128;-74
2022/09/19 10:39:00;;;;;;;4.88;1.70;;;19.60;67.20;;;;;;5113560;28;20020;-74
2022/09/19 10:41:27;;;;;;;3.15;1.40;;;19.60;67.30;;;;;;5112708;28;20012;-74
2022/09/19 10:44:18;;;;;;;2.33;1.48;;;19.60;67.30;;;;;;5112233;28;20047;-74
2022/09/19 10:47:02;;;;;;;4.28;1.90;;;19.60;67.30;;;;;;5100315;28;20024;-74
2022/09/19 10:49:45;;;;;;;3.80;1.70;;;19.60;67.30;;;;;;5098057;28;20047;-74
2022/09/19 10:52:11;;;;;;;3.17;1.10;;;19.60;67.40;;;;;;5112496;28;20031;-74
2022/09/19 10:54:39;;;;;;;3.90;1.30;;;19.60;67.40;;;;;;5095195;28;20031;-74
2022/09/19 10:57:06;;;;;;;3.95;1.20;;;19.60;67.40;;;;;;5111874;28;20493;-74
2022/09/19 10:59:38;;;;;;;2.20;1.35;;;19.60;67.40;;;;;;5112367;28;20016;-74
2022/09/19 11:02:10;;;;;;;1.65;1.10;;;19.60;67.40;;;;;;5112312;28;20472;-74
2022/09/19 11:04:36;;;;;;;2.87;1.27;;;19.60;67.40;;;;;;5113316;28;20020;-74
2022/09/19 11:07:05;;;;;;;4.32;1.70;;;19.60;67.40;;;;;;5112066;28;20097;-74
2022/09/19 11:09:35;;;;;;;3.45;1.67;;;19.60;67.40;;;;;;5111890;28;20085;-74
2022/09/19 11:12:14;;;;;;;4.00;1.23;;;19.60;67.40;;;;;;5112962;28;20027;-75
2022/09/19 11:14:41;;;;;;;4.03;1.40;;;19.60;67.40;;;;;;5111953;28;20062;-74
2022/09/19 11:17:29;;;;;;;2.95;1.27;;;19.60;67.40;;;;;;5113114;28;20020;-74
2022/09/19 11:20:18;;;;;;;4.00;1.23;;;19.60;67.50;;;;;;5106411;28;20024;-74
2022/09/19 11:23:03;;;;;;;2.00;1.30;;;19.60;67.70;;;;;;5071274;28;20027;-74
2022/09/19 11:25:36;;;;;;;5.25;1.60;;;19.60;67.70;;;;;;5072403;28;20033;-74
2022/09/19 11:28:12;;;;;;;2.38;1.10;;;19.60;67.80;;;;;;5095508;28;20368;-74
2022/09/19 11:30:55;;;;;;;1.92;1.25;;;19.60;67.70;;;;;;5111815;28;20452;-74
2022/09/19 11:33:53;;;;;;;2.13;1.08;;;19.60;67.90;;;;;;5111918;28;20019;-74
2022/09/19 11:36:40;;;;;;;2.35;1.13;;;19.60;67.80;;;;;;5098190;28;20035;-74
2022/09/19 11:39:19;;;;;;;1.20;1.10;;;19.60;67.90;;;;;;5112628;28;20102;-74
2022/09/19 11:42:05;;;;;;;2.35;1.25;;;19.60;67.80;;;;;;5111407;28;20016;-74
2022/09/19 11:44:35;;;;;;;3.25;1.10;;;19.60;67.80;;;;;;5094870;28;20023;-74
2022/09/19 11:47:13;;;;;;;1.77;1.00;;;19.60;67.80;;;;;;5111402;28;20020;-74
2022/09/19 11:49:54;;;;;;;3.83;1.30;;;19.60;67.80;;;;;;5112607;28;20484;-74
2022/09/19 11:52:34;;;;;;;1.45;1.20;;;19.60;67.90;;;;;;5112637;28;20023;-74
2022/09/19 11:55:33;;;;;;;3.22;0.95;;;19.60;67.90;;;;;;5111047;28;20032;-74
2022/09/19 11:58:22;;;;;;;1.52;1.08;;;19.60;67.90;;;;;;5111406;28;20022;-74
2022/09/19 12:01:06;;;;;;;2.80;0.90;;;19.60;67.90;;;;;;5112523;28;20055;-74
2022/09/19 12:03:47;;;;;;;3.20;1.35;;;19.60;67.90;;;;;;5112731;28;20094;-74
2022/09/19 12:06:25;;;;;;;3.60;1.30;;;19.60;68.00;;;;;;5112574;28;20024;-74
2022/09/19 12:08:50;;;;;;;1.55;1.05;;;19.60;68.00;;;;;;5111259;28;20015;-74
2022/09/19 12:11:20;;;;;;;4.18;1.10;;;19.60;68.00;;;;;;5112299;28;20114;-74
2022/09/19 12:13:49;;;;;;;2.97;1.25;;;19.60;68.00;;;;;;5094485;28;20518;-74
2022/09/19 12:16:23;;;;;;;2.05;1.02;;;19.60;68.10;;;;;;5111193;28;20387;-74
2022/09/19 12:19:00;;;;;;;2.92;1.30;;;19.60;68.00;;;;;;5112427;28;20016;-74
2022/09/19 12:21:31;;;;;;;1.98;1.00;;;19.60;68.10;;;;;;5079504;28;20054;-74
2022/09/19 12:26:56;;;;;;;2.35;1.13;;;19.60;68.10;;;;;;5073087;28;20112;-74
2022/09/19 12:29:49;;;;;;;1.83;1.10;;;19.60;68.20;;;;;;5111323;28;20020;-74
2022/09/19 12:32:29;;;;;;;1.38;0.82;;;19.60;68.20;;;;;;5111152;28;20024;-74
2022/09/19 12:34:59;;;;;;;2.10;1.00;;;19.60;68.20;;;;;;5095324;28;20093;-74
2022/09/19 12:37:35;;;;;;;1.00;0.85;;;19.60;68.30;;;;;;5111222;28;20020;-74
2022/09/19 12:40:12;;;;;;;1.58;1.00;;;19.60;68.20;;;;;;5110838;28;20066;-74
2022/09/19 12:43:16;;;;;;;2.30;1.13;;;19.60;68.30;;;;;;5111117;28;20020;-74
2022/09/19 12:46:09;;;;;;;1.90;0.90;;;19.60;68.30;;;;;;5108247;28;20063;-74
2022/09/19 12:48:49;;;;;;;1.42;0.90;;;19.60;68.30;;;;;;5111229;28;20039;-74
2022/09/19 12:51:23;;;;;;;2.05;1.05;;;19.60;68.30;;;;;;5112155;28;20138;-74
2022/09/19 12:53:59;;;;;;;2.42;1.15;;;19.60;68.30;;;;;;5094671;28;20077;-74
2022/09/19 12:56:32;;;;;;;1.20;1.02;;;19.60;68.40;;;;;;5096771;28;20081;-74
2022/09/19 12:59:05;;;;;;;2.05;1.30;;;19.60;68.40;;;;;;5114473;28;20076;-74
2022/09/19 13:01:56;;;;;;;1.60;1.00;;;19.60;68.40;;;;;;5098289;28;20399;-75
2022/09/19 13:04:28;;;;;;;2.55;1.20;;;19.60;68.40;;;;;;5098296;28;20073;-74
2022/09/19 13:06:58;;;;;;;1.77;0.90;;;19.60;68.40;;;;;;5114244;28;20461;-74
2022/09/19 13:09:41;;;;;;;1.08;0.98;;;19.60;68.50;;;;;;5114521;28;20020;-74
2022/09/19 13:12:34;;;;;;;3.63;1.10;;;19.70;69.60;;;;;;5114199;28;20501;-74
2022/09/19 13:15:24;;;;;;;0.98;0.90;;;19.70;68.70;;;;;;5114422;28;20390;-74
2022/09/19 13:23:30;;;;;;;1.45;1.10;;;19.70;68.80;;;;;;5074466;28;20035;-74
2022/09/19 13:25:57;;;;;;;1.13;0.80;;;19.70;68.80;;;;;;5073480;28;20027;-74
2022/09/19 13:28:26;;;;;;;2.45;1.00;;;19.70;68.80;;;;;;5103562;28;20505;-74
2022/09/19 13:30:59;;;;;;;1.67;0.95;;;19.70;68.80;;;;;;5114036;28;20031;-74
2022/09/19 13:33:35;;;;;;;1.17;0.77;;;19.70;68.80;;;;;;5113902;28;20023;-74
2022/09/19 13:36:08;;;;;;;3.05;1.30;;;19.70;68.80;;;;;;5096765;28;20559;-74